地図

経路データ

SID SEASON NUMBER BASIN SUBBASIN NAME ISO_TIME NATURE LAT LON WMO_WIND WMO_PRES WMO_AGENCY TRACK_TYPE DIST2LAND LANDFALL IFLAG USA_AGENCY USA_ATCF_ID USA_LAT USA_LON USA_RECORD USA_STATUS USA_WIND USA_PRES USA_SSHS USA_R34_NE USA_R34_SE USA_R34_SW USA_R34_NW USA_R50_NE USA_R50_SE USA_R50_SW USA_R50_NW USA_R64_NE USA_R64_SE USA_R64_SW USA_R64_NW USA_POCI USA_ROCI USA_RMW USA_EYE TOKYO_LAT TOKYO_LON TOKYO_GRADE TOKYO_WIND TOKYO_PRES TOKYO_R50_DIR TOKYO_R50_LONG TOKYO_R50_SHORT TOKYO_R30_DIR TOKYO_R30_LONG TOKYO_R30_SHORT TOKYO_LAND CMA_LAT CMA_LON CMA_CAT CMA_WIND CMA_PRES HKO_LAT HKO_LON HKO_CAT HKO_WIND HKO_PRES NEWDELHI_LAT NEWDELHI_LON NEWDELHI_GRADE NEWDELHI_WIND NEWDELHI_PRES NEWDELHI_CI NEWDELHI_DP NEWDELHI_POCI REUNION_LAT REUNION_LON REUNION_TYPE REUNION_WIND REUNION_PRES REUNION_TNUM REUNION_CI REUNION_RMW REUNION_R34_NE REUNION_R34_SE REUNION_R34_SW REUNION_R34_NW REUNION_R50_NE REUNION_R50_SE REUNION_R50_SW REUNION_R50_NW REUNION_R64_NE REUNION_R64_SE REUNION_R64_SW REUNION_R64_NW BOM_LAT BOM_LON BOM_TYPE BOM_WIND BOM_PRES BOM_TNUM BOM_CI BOM_RMW BOM_R34_NE BOM_R34_SE BOM_R34_SW BOM_R34_NW BOM_R50_NE BOM_R50_SE BOM_R50_SW BOM_R50_NW BOM_R64_NE BOM_R64_SE BOM_R64_SW BOM_R64_NW BOM_ROCI BOM_POCI BOM_EYE BOM_POS_METHOD BOM_PRES_METHOD NADI_LAT NADI_LON NADI_CAT NADI_WIND NADI_PRES WELLINGTON_LAT WELLINGTON_LON WELLINGTON_WIND WELLINGTON_PRES DS824_LAT DS824_LON DS824_STAGE DS824_WIND DS824_PRES TD9636_LAT TD9636_LON TD9636_STAGE TD9636_WIND TD9636_PRES TD9635_LAT TD9635_LON TD9635_WIND TD9635_PRES TD9635_ROCI NEUMANN_LAT NEUMANN_LON NEUMANN_CLASS NEUMANN_WIND NEUMANN_PRES MLC_LAT MLC_LON MLC_CLASS MLC_WIND MLC_PRES USA_GUST BOM_GUST BOM_GUST_PER REUNION_GUST REUNION_GUST_PER USA_SEAHGT USA_SEARAD_NE USA_SEARAD_SE USA_SEARAD_SW USA_SEARAD_NW STORM_SPEED STORM_DIR
1906091S14066 1906 12 SI MM NOT_NAMED 1906-03-31 18:00:00 NR -14.3000 65.8000 main 1077 1055 __________O___ -1 -14.3000 65.8000 7 4 196
1906091S14066 1906 12 SI MM NOT_NAMED 1906-03-31 21:00:00 NR -14.5013 65.7452 main 1055 1041 __________P___ -1 -14.5013 65.7452 7 4 198
1906091S14066 1906 12 SI MM NOT_NAMED 1906-04-01 00:00:00 NR -14.7021 65.6623 main 1041 1011 __________P___ -1 -14.7021 65.6623 7 5 208
1906091S14066 1906 12 SI MM NOT_NAMED 1906-04-01 03:00:00 NR -14.9019 65.5233 main 1011 980 __________P___ -1 -14.9019 65.5233 7 5 221
1906091S14066 1906 12 SI MM NOT_NAMED 1906-04-01 06:00:00 NR -15.1000 65.3000 main 980 941 __________O___ -1 -15.1000 65.3000 7 7 233
1906091S14066 1906 12 SI MM NOT_NAMED 1906-04-01 09:00:00 NR -15.2963 64.9751 main 941 893 __________P___ -1 -15.2963 64.9751 7 8 241
1906091S14066 1906 12 SI MM NOT_NAMED 1906-04-01 12:00:00 NR -15.4930 64.5751 main 893 845 __________P___ -1 -15.4930 64.5751 7 9 244
1906091S14066 1906 12 SI MM NOT_NAMED 1906-04-01 15:00:00 NR -15.6931 64.1375 main 837 789 __________P___ -1 -15.6931 64.1375 7 9 244
1906091S14066 1906 12 SI MM NOT_NAMED 1906-04-01 18:00:00 NR -15.9000 63.7000 main 789 741 __________O___ -1 -15.9000 63.7000 7 9 242
1906091S14066 1906 12 SI MM NOT_NAMED 1906-04-01 21:00:00 NR -16.1218 63.2975 main 741 694 __________P___ -1 -16.1218 63.2975 7 9 239
1906091S14066 1906 12 SI MM NOT_NAMED 1906-04-02 00:00:00 NR -16.3500 62.9051 main 694 648 __________P___ -1 -16.3500 62.9051 7 9 238
1906091S14066 1906 12 SI MM NOT_NAMED 1906-04-02 03:00:00 NR -16.5781 62.5350 main 640 601 __________P___ -1 -16.5781 62.5350 7 8 236
1906091S14066 1906 12 SI MM NOT_NAMED 1906-04-02 06:00:00 NR -16.8000 62.2000 main 601 562 __________O___ -1 -16.8000 62.2000 7 7 235
1906091S14066 1906 12 SI MM NOT_NAMED 1906-04-02 09:00:00 NR -17.0028 61.9096 main 562 531 __________P___ -1 -17.0028 61.9096 7 7 233
1906091S14066 1906 12 SI MM NOT_NAMED 1906-04-02 12:00:00 NR -17.1996 61.6545 main 531 492 __________P___ -1 -17.1996 61.6545 7 6 230
1906091S14066 1906 12 SI MM NOT_NAMED 1906-04-02 15:00:00 NR -17.3966 61.4221 main 492 462 __________P___ -1 -17.3966 61.4221 7 6 227
1906091S14066 1906 12 SI MM NOT_NAMED 1906-04-02 18:00:00 NR -17.6000 61.2000 main 462 432 __________O___ -1 -17.6000 61.2000 7 6 226
1906091S14066 1906 12 SI MM NOT_NAMED 1906-04-02 21:00:00 NR -17.8300 60.9436 main 423 386 __________P___ -1 -17.8300 60.9436 7 7 226
1906091S14066 1906 12 SI MM NOT_NAMED 1906-04-03 00:00:00 NR -18.0651 60.6977 main 386 356 __________P___ -1 -18.0651 60.6977 7 6 224
1906091S14066 1906 12 SI MM NOT_NAMED 1906-04-03 03:00:00 NR -18.2926 60.4780 main 356 326 __________P___ -1 -18.2926 60.4780 7 6 221
1906091S14066 1906 12 SI MM NOT_NAMED 1906-04-03 06:00:00 NR -18.5000 60.3000 main 326 305 __________O___ -1 -18.5000 60.3000 7 5 216
1906091S14066 1906 12 SI MM NOT_NAMED 1906-04-03 09:00:00 NR -18.6714 60.1856 main 305 290 __________P___ -1 -18.6714 60.1856 7 4 209
1906091S14066 1906 12 SI MM NOT_NAMED 1906-04-03 12:00:00 NR -18.8223 60.1120 main 290 279 __________P___ -1 -18.8223 60.1120 7 3 202
1906091S14066 1906 12 SI MM NOT_NAMED 1906-04-03 15:00:00 NR -18.9620 60.0575 main 279 265 __________P___ -1 -18.9620 60.0575 7 3 200
1906091S14066 1906 12 SI MM NOT_NAMED 1906-04-03 18:00:00 NR -19.1000 60.0000 main 265 251 __________O___ -1 -19.1000 60.0000 7 3 209
1906091S14066 1906 12 SI MM NOT_NAMED 1906-04-03 21:00:00 NR -19.2378 59.8991 main 251 232 __________P___ -1 -19.2378 59.8991 7 3 215
1906091S14066 1906 12 SI MM NOT_NAMED 1906-04-04 00:00:00 NR -19.3775 59.7925 main 232 217 __________P___ -1 -19.3775 59.7925 7 4 214
1906091S14066 1906 12 SI MM NOT_NAMED 1906-04-04 03:00:00 NR -19.5285 59.6897 main 217 199 __________P___ -1 -19.5285 59.6897 7 4 209
1906091S14066 1906 12 SI MM NOT_NAMED 1906-04-04 06:00:00 NR -19.7000 59.6000 main 199 183 __________O___ -1 -19.7000 59.6000 7 4 202
1906091S14066 1906 12 SI MM NOT_NAMED 1906-04-04 09:00:00 NR -19.9034 59.5275 main 183 178 __________P___ -1 -19.9034 59.5275 7 4 197
1906091S14066 1906 12 SI MM NOT_NAMED 1906-04-04 12:00:00 NR -20.1275 59.4700 main 178 166 __________P___ -1 -20.1275 59.4700 7 5 192
1906091S14066 1906 12 SI MM NOT_NAMED 1906-04-04 15:00:00 NR -20.3628 59.4275 main 167 167 __________P___ -1 -20.3628 59.4275 7 5 189
1906091S14066 1906 12 SI MM NOT_NAMED 1906-04-04 18:00:00 NR -20.6000 59.4000 main 170 170 __________O___ -1 -20.6000 59.4000 7 5 184
1906091S14066 1906 12 SI MM NOT_NAMED 1906-04-04 21:00:00 NR -20.8316 59.3868 main 175 175 __________P___ -1 -20.8316 59.3868 7 5 183
1906091S14066 1906 12 SI MM NOT_NAMED 1906-04-05 00:00:00 NR -21.0575 59.3849 main 188 188 __________P___ -1 -21.0575 59.3849 7 5 0
1906091S14066 1906 12 SI MM NOT_NAMED 1906-04-05 03:00:00 NR -21.2797 59.3906 main 197 197 __________P___ -1 -21.2797 59.3906 7 4 0
1906091S14066 1906 12 SI MM NOT_NAMED 1906-04-05 06:00:00 NR -21.5000 59.4000 main 208 __________O___ -1 -21.5000 59.4000 7 4 0

IBTrACS Databaseについて

本データベースは、米国NOAAが公開する1842年以降の世界の熱帯低気圧のベストトラックデータアーカイブInternational Best Track Archive for Climate Stewardship (IBTrACS)を、ウェブで閲覧しやすい形式に変換したものです。

最終更新日:2021-10-21